Time;durP1;ratioP1;P1;durP2;ratioP2;P2;SDS_P1;SDS_P2;PMS_P1;PMS_P2;Temp;Humidity;BMP_temperature;BMP_pressure;BME280_temperature;BME280_humidity;BME280_pressure;Samples;Min_cycle;Max_cycle;Signal;HPM_P1;HPM_P2
2022/07/10 00:02:52;;;;;;;2.70;1.07;;;14.70;99.90;;;;;;5048235;28;20470;-72
2022/07/10 00:05:56;;;;;;;1.93;1.30;;;14.60;99.90;;;;;;5046399;28;20466;-71
2022/07/10 00:09:27;;;;;;;4.23;1.27;;;14.60;99.90;;;;;;5047879;28;20469;-72
2022/07/10 00:12:51;;;;;;;4.00;1.50;;;14.60;99.90;;;;;;5044968;28;20458;-73
2022/07/10 00:15:53;;;;;;;4.20;1.30;;;14.60;99.90;;;;;;5040280;28;20619;-73
2022/07/10 00:19:10;;;;;;;3.67;1.30;;;14.60;99.90;;;;;;5039945;28;20466;-71
2022/07/10 00:22:17;;;;;;;3.37;1.30;;;14.60;99.90;;;;;;5046071;28;20485;-70
2022/07/10 00:25:49;;;;;;;3.50;1.30;;;14.60;99.90;;;;;;5049643;28;20470;-71
2022/07/10 00:28:58;;;;;;;2.80;1.20;;;14.60;99.90;;;;;;5046103;28;20485;-71
2022/07/10 00:32:30;;;;;;;3.60;1.30;;;14.50;99.90;;;;;;5048972;28;20576;-71
2022/07/10 00:35:52;;;;;;;4.00;1.73;;;14.50;99.90;;;;;;5042871;28;20609;-71
2022/07/10 00:39:15;;;;;;;4.20;1.07;;;14.50;99.90;;;;;;5044436;28;20577;-71
2022/07/10 00:42:13;;;;;;;2.00;1.20;;;14.50;99.90;;;;;;5048334;28;20463;-71
2022/07/10 00:45:19;;;;;;;2.77;1.10;;;14.50;99.90;;;;;;5047585;28;20929;-72
2022/07/10 00:48:48;;;;;;;3.43;1.33;;;14.50;99.90;;;;;;5047757;28;20986;-71
2022/07/10 00:52:02;;;;;;;2.73;1.27;;;14.50;99.90;;;;;;5048955;28;20467;-71
2022/07/10 00:55:02;;;;;;;1.67;1.03;;;14.50;99.90;;;;;;5046002;28;20470;-71
2022/07/10 00:58:02;;;;;;;4.67;1.60;;;14.50;99.90;;;;;;5048551;28;20446;-71
2022/07/10 01:01:34;;;;;;;6.00;1.30;;;14.50;99.90;;;;;;4997830;28;20977;-72
2022/07/10 01:04:42;;;;;;;4.23;1.37;;;14.50;99.90;;;;;;4995849;28;20546;-72
2022/07/10 01:07:58;;;;;;;2.87;1.37;;;14.40;99.90;;;;;;4999005;28;20453;-72
2022/07/10 01:11:16;;;;;;;1.20;0.87;;;14.40;99.90;;;;;;4996345;28;20485;-71
2022/07/10 01:14:19;;;;;;;5.10;1.60;;;14.40;99.90;;;;;;4998035;28;20465;-72
2022/07/10 01:17:35;;;;;;;5.33;1.60;;;14.40;99.90;;;;;;4996319;28;20458;-71
2022/07/10 01:20:49;;;;;;;5.37;1.50;;;14.40;99.90;;;;;;4997798;28;20480;-72
2022/07/10 01:24:15;;;;;;;3.10;1.17;;;14.40;99.90;;;;;;4996971;28;21011;-71
2022/07/10 01:27:19;;;;;;;6.90;1.60;;;14.40;99.90;;;;;;4996832;28;20567;-72
2022/07/10 01:30:30;;;;;;;3.70;1.53;;;14.40;99.90;;;;;;5042322;28;20841;-71
2022/07/10 01:40:35;;;;;;;3.30;1.20;;;14.40;99.90;;;;;;5046974;28;20495;-72
2022/07/10 01:43:55;;;;;;;4.87;1.67;;;14.40;99.90;;;;;;5049565;28;20549;-71
2022/07/10 01:46:55;;;;;;;4.03;1.63;;;14.40;99.90;;;;;;5046447;28;20489;-72
2022/07/10 01:50:08;;;;;;;3.33;1.57;;;14.40;99.90;;;;;;5037655;28;20475;-73
2022/07/10 01:53:04;;;;;;;1.93;1.10;;;14.50;99.90;;;;;;5049605;28;20467;-72
2022/07/10 01:56:07;;;;;;;1.80;1.03;;;14.50;99.90;;;;;;5042272;28;20478;-71
2022/07/10 01:59:16;;;;;;;2.53;1.23;;;14.40;99.90;;;;;;5044870;28;20659;-72
2022/07/10 02:02:19;;;;;;;1.83;1.30;;;14.40;99.90;;;;;;5041842;28;20556;-71
2022/07/10 02:05:14;;;;;;;4.10;1.50;;;14.40;99.90;;;;;;5043190;28;20632;-72
2022/07/10 02:08:09;;;;;;;2.80;1.50;;;14.30;99.90;;;;;;5043788;28;20464;-72
2022/07/10 02:11:16;;;;;;;2.50;1.30;;;14.40;99.90;;;;;;5043983;28;20469;-72
2022/07/10 02:14:16;;;;;;;3.33;1.20;;;14.30;99.90;;;;;;5042505;28;20455;-71
2022/07/10 02:17:12;;;;;;;1.73;1.07;;;14.30;99.90;;;;;;5038972;28;20489;-72
2022/07/10 02:20:41;;;;;;;2.20;1.23;;;14.30;99.90;;;;;;5040740;28;20486;-71
2022/07/10 02:23:40;;;;;;;2.30;1.20;;;14.30;99.90;;;;;;5044872;28;20545;-75
2022/07/10 02:26:59;;;;;;;3.10;1.23;;;14.30;99.90;;;;;;5043201;28;20498;-72
2022/07/10 02:29:53;;;;;;;2.00;1.23;;;14.30;99.90;;;;;;5041414;28;20494;-72
2022/07/10 02:33:06;;;;;;;;;;;;;;;;;;;;;
2022/07/10 02:36:30;;;;;;;7.90;1.40;;;14.30;99.90;;;;;;5047770;28;21010;-72
2022/07/10 02:39:52;;;;;;;2.60;1.23;;;14.30;99.90;;;;;;5045209;28;20481;-71
2022/07/10 02:43:04;;;;;;;1.83;1.50;;;14.30;99.90;;;;;;5049064;28;20535;-71
2022/07/10 02:46:05;;;;;;;5.43;1.73;;;14.30;99.90;;;;;;5046316;28;20489;-73
2022/07/10 02:49:24;;;;;;;3.83;1.30;;;14.30;99.90;;;;;;5047237;28;20528;-71
2022/07/10 02:52:30;;;;;;;4.20;1.53;;;14.30;99.90;;;;;;5048724;28;20454;-72
2022/07/10 02:55:40;;;;;;;3.80;1.60;;;14.20;99.90;;;;;;5048498;28;21063;-71
2022/07/10 02:58:50;;;;;;;4.63;1.43;;;14.30;99.90;;;;;;5039663;28;20481;-72
2022/07/10 03:02:08;;;;;;;4.27;1.70;;;14.30;99.90;;;;;;5046950;28;22829;-72
2022/07/10 03:05:33;;;;;;;3.03;1.70;;;14.30;99.90;;;;;;5040194;28;21759;-71
2022/07/10 03:11:50;;;;;;;3.80;1.83;;;14.30;99.90;;;;;;5051348;28;20451;-72
2022/07/10 03:15:10;;;;;;;4.40;2.07;;;14.30;99.90;;;;;;5049171;28;21010;-72
2022/07/10 03:18:20;;;;;;;4.50;1.50;;;14.30;99.90;;;;;;5046770;28;20566;-71
2022/07/10 03:21:23;;;;;;;4.00;2.00;;;14.30;99.90;;;;;;5048101;28;21029;-71
2022/07/10 03:24:24;;;;;;;2.90;1.73;;;14.30;99.90;;;;;;5047927;28;20455;-71
2022/07/10 03:27:22;;;;;;;2.30;1.67;;;14.30;99.90;;;;;;5047014;28;20478;-71
2022/07/10 03:30:38;;;;;;;3.63;1.80;;;14.30;99.90;;;;;;5042144;28;21028;-71
2022/07/10 03:33:42;;;;;;;5.83;1.90;;;14.30;99.90;;;;;;5043753;28;20899;-71
2022/07/10 03:36:51;;;;;;;4.53;1.87;;;14.30;99.90;;;;;;5047255;28;20477;-71
2022/07/10 03:39:48;;;;;;;4.70;2.00;;;14.30;99.90;;;;;;5047789;28;20474;-72
2022/07/10 03:43:06;;;;;;;4.83;1.70;;;14.30;99.90;;;;;;5049844;28;20489;-72
2022/07/10 03:49:32;;;;;;;4.30;2.30;;;14.30;99.90;;;;;;5048846;28;20466;-71
2022/07/10 03:57:53;;;;;;;5.50;3.00;;;14.30;99.90;;;;;;5048798;28;20551;-72
2022/07/10 03:59:34;;;;;;;5.17;2.70;;;14.30;99.90;;;;;;5049586;28;21021;-72
2022/07/10 04:02:46;;;;;;;8.27;3.13;;;14.30;99.90;;;;;;5048647;28;21026;-71
2022/07/10 04:05:42;;;;;;;6.10;2.90;;;14.30;99.90;;;;;;5046141;28;20520;-72
2022/07/10 04:09:04;;;;;;;7.70;2.73;;;14.30;99.90;;;;;;5045451;28;20756;-71
2022/07/10 04:12:22;;;;;;;7.17;2.83;;;14.30;99.90;;;;;;5047950;28;21083;-71
2022/07/10 04:15:31;;;;;;;6.27;2.83;;;14.30;99.90;;;;;;5045476;28;20823;-72
2022/07/10 04:18:33;;;;;;;7.20;2.83;;;14.30;99.90;;;;;;5045686;28;20521;-74
2022/07/10 04:21:43;;;;;;;5.70;2.60;;;14.30;99.90;;;;;;5047645;28;20474;-72
2022/07/10 04:24:49;;;;;;;7.47;2.70;;;14.30;99.90;;;;;;5048578;28;20454;-72
2022/07/10 04:28:02;;;;;;;10.13;3.33;;;14.30;99.90;;;;;;5043699;28;20465;-72
2022/07/10 04:31:46;;;;;;;7.77;3.20;;;14.30;99.90;;;;;;5045307;28;20474;-70
2022/07/10 04:34:47;;;;;;;5.67;2.37;;;14.30;99.90;;;;;;5042013;28;20454;-71
2022/07/10 04:37:43;;;;;;;5.73;2.80;;;14.30;99.90;;;;;;5048123;28;20593;-73
2022/07/10 04:44:26;;;;;;;6.67;2.90;;;14.30;99.90;;;;;;5047649;28;20473;-71
2022/07/10 04:47:31;;;;;;;9.67;3.43;;;14.30;99.90;;;;;;5044452;28;20470;-71
2022/07/10 04:50:39;;;;;;;5.67;2.90;;;14.30;99.90;;;;;;5046760;28;20517;-71
2022/07/10 04:54:10;;;;;;;8.20;3.17;;;14.30;99.90;;;;;;5048630;28;20450;-71
2022/07/10 04:57:37;;;;;;;8.83;3.27;;;14.30;99.90;;;;;;5045278;28;20481;-71
2022/07/10 05:00:51;;;;;;;9.20;3.50;;;14.30;99.90;;;;;;5044945;28;20844;-71
2022/07/10 05:04:09;;;;;;;7.10;3.20;;;14.40;99.90;;;;;;5046514;28;20504;-71
2022/07/10 05:07:41;;;;;;;7.33;3.33;;;14.40;99.90;;;;;;5028156;28;21255;-71
2022/07/10 05:14:36;;;;;;;;;;;;;;;;;;;;;
2022/07/10 05:17:39;;;;;;;7.30;3.00;;;14.50;99.90;;;;;;5022946;28;20575;-72
2022/07/10 05:20:49;;;;;;;8.77;2.97;;;14.50;99.90;;;;;;5046569;28;20846;-71
2022/07/10 05:23:58;;;;;;;7.90;2.83;;;14.50;99.90;;;;;;5045148;28;20462;-72
2022/07/10 05:27:21;;;;;;;7.40;3.00;;;14.50;99.90;;;;;;5043657;28;20462;-72
2022/07/10 05:30:23;;;;;;;14.97;3.73;;;14.50;99.90;;;;;;5042695;28;20900;-72
2022/07/10 05:33:32;;;;;;;7.47;2.70;;;14.50;99.90;;;;;;5046237;28;20462;-71
2022/07/10 05:36:44;;;;;;;6.27;2.60;;;14.50;99.90;;;;;;5047774;28;20557;-72
2022/07/10 05:40:10;;;;;;;7.00;3.10;;;14.50;99.90;;;;;;5045455;28;20470;-72
2022/07/10 05:46:46;;;;;;;9.03;2.93;;;14.60;99.90;;;;;;5045128;28;20558;-72
2022/07/10 05:50:00;;;;;;;9.27;3.37;;;14.60;99.90;;;;;;5046401;28;21228;-71
2022/07/10 05:52:56;;;;;;;8.90;2.80;;;14.60;99.90;;;;;;5045765;28;20461;-72
2022/07/10 05:56:10;;;;;;;11.83;4.07;;;14.60;99.90;;;;;;5046438;28;20485;-72
2022/07/10 05:59:12;;;;;;;7.37;2.83;;;14.70;99.90;;;;;;5045667;28;20478;-72
2022/07/10 06:02:06;;;;;;;13.03;3.80;;;14.80;99.90;;;;;;5039649;28;20443;-72
2022/07/10 06:05:09;;;;;;;8.77;3.10;;;14.70;99.90;;;;;;5025523;28;20462;-74
2022/07/10 06:07:58;;;;;;;6.67;3.20;;;14.80;99.90;;;;;;5037343;28;20447;-72
2022/07/10 06:10:48;;;;;;;9.57;3.17;;;14.80;99.90;;;;;;5047753;28;20852;-72
2022/07/10 06:13:48;;;;;;;6.30;2.57;;;14.80;99.90;;;;;;5043031;28;20469;-72
2022/07/10 06:16:40;;;;;;;8.17;2.83;;;14.80;99.90;;;;;;5029670;28;20478;-73
2022/07/10 06:19:42;;;;;;;6.80;3.53;;;14.90;99.90;;;;;;5031168;28;20489;-72
2022/07/10 06:22:39;;;;;;;6.30;2.90;;;14.90;99.90;;;;;;5033006;28;21050;-72
2022/07/10 06:25:34;;;;;;;6.97;3.30;;;14.90;99.90;;;;;;5037150;28;20563;-72
2022/07/10 06:28:27;;;;;;;9.17;2.77;;;14.90;99.90;;;;;;5027412;28;22848;-71
2022/07/10 06:31:16;;;;;;;7.47;2.50;;;14.90;99.90;;;;;;5031202;28;20450;-72
2022/07/10 06:34:13;;;;;;;7.40;2.70;;;15.00;99.90;;;;;;5035563;28;20466;-71
2022/07/10 06:37:02;;;;;;;11.70;2.87;;;15.00;99.90;;;;;;5034089;28;20581;-73
2022/07/10 06:39:58;;;;;;;7.73;3.13;;;15.10;99.90;;;;;;5024946;28;20554;-71
2022/07/10 06:43:15;;;;;;;5.70;3.23;;;15.00;99.90;;;;;;5038011;28;20481;-72
2022/07/10 06:46:11;;;;;;;8.70;3.17;;;15.10;99.90;;;;;;5028287;28;20478;-72
2022/07/10 06:49:01;;;;;;;11.43;3.30;;;15.10;99.90;;;;;;5033763;28;20553;-73
2022/07/10 06:52:07;;;;;;;10.40;2.43;;;15.10;99.90;;;;;;5041675;28;20454;-70
2022/07/10 06:55:06;;;;;;;7.60;2.70;;;15.20;99.90;;;;;;5043174;28;20453;-72
2022/07/10 06:57:58;;;;;;;5.03;2.03;;;15.20;99.90;;;;;;5040330;28;20484;-73
2022/07/10 07:00:58;;;;;;;10.20;2.43;;;15.30;99.90;;;;;;5041013;28;21461;-73
2022/07/10 07:03:47;;;;;;;5.50;2.10;;;15.40;99.90;;;;;;5038748;28;20517;-71
2022/07/10 07:06:41;;;;;;;7.03;2.37;;;15.40;99.90;;;;;;5044470;28;20478;-72
2022/07/10 07:09:35;;;;;;;10.50;2.50;;;15.40;99.90;;;;;;5040852;28;20481;-74
2022/07/10 07:12:25;;;;;;;12.07;2.40;;;15.40;99.90;;;;;;5034196;28;20473;-72
2022/07/10 07:15:20;;;;;;;9.60;2.90;;;15.40;99.90;;;;;;5038467;28;20528;-70
2022/07/10 07:18:18;;;;;;;6.67;2.50;;;15.50;99.90;;;;;;5035606;28;20466;-72
2022/07/10 07:24:22;;;;;;;8.57;2.40;;;15.60;99.90;;;;;;5041830;28;20447;-75
2022/07/10 07:27:21;;;;;;;4.30;2.03;;;15.70;99.90;;;;;;5042519;28;20574;-73
2022/07/10 07:30:15;;;;;;;5.20;2.07;;;15.80;99.90;;;;;;5038899;28;20564;-75
2022/07/10 07:33:13;;;;;;;;;;;;;;;;;;;;;
2022/07/10 07:36:06;;;;;;;7.80;2.50;;;16.00;99.90;;;;;;5043350;28;20493;-73
2022/07/10 07:38:56;;;;;;;6.63;2.60;;;16.00;99.90;;;;;;5037056;28;21119;-73
2022/07/10 07:41:49;;;;;;;7.57;2.50;;;16.10;99.90;;;;;;5031057;28;20462;-74
2022/07/10 07:44:38;;;;;;;6.30;2.33;;;16.10;99.90;;;;;;5031808;28;20552;-73
2022/07/10 07:47:26;;;;;;;6.90;2.37;;;16.20;99.90;;;;;;5037439;28;20941;-73
2022/07/10 07:50:17;;;;;;;7.43;2.40;;;16.20;99.90;;;;;;5023511;28;20521;-72
2022/07/10 07:53:07;;;;;;;8.63;2.40;;;16.10;99.90;;;;;;5035549;28;20970;-73
2022/07/10 07:55:55;;;;;;;6.50;1.73;;;16.20;99.90;;;;;;5031273;28;20529;-72
2022/07/10 07:58:45;;;;;;;6.47;2.17;;;16.20;99.90;;;;;;5031219;28;20478;-72
2022/07/10 08:01:33;;;;;;;4.93;1.87;;;16.20;99.90;;;;;;5038325;28;20454;-72
2022/07/10 08:04:21;;;;;;;4.97;1.90;;;16.30;99.90;;;;;;5040188;28;20513;-71
2022/07/10 08:07:10;;;;;;;5.80;2.00;;;16.30;99.90;;;;;;5039648;28;21144;-72
2022/07/10 08:09:58;;;;;;;3.50;1.53;;;16.30;99.90;;;;;;5037000;28;20516;-71
2022/07/10 08:12:49;;;;;;;6.03;2.10;;;16.50;99.90;;;;;;5039310;28;20564;-71
2022/07/10 08:15:39;;;;;;;5.30;1.90;;;16.50;99.90;;;;;;5038072;28;20514;-71
2022/07/10 08:18:29;;;;;;;5.17;1.97;;;16.50;99.90;;;;;;5038905;28;20486;-73
2022/07/10 08:21:18;;;;;;;7.70;2.00;;;16.50;99.90;;;;;;5040541;28;20463;-72
2022/07/10 08:24:09;;;;;;;5.63;2.00;;;16.60;99.90;;;;;;5037368;28;20577;-72
2022/07/10 08:26:57;;;;;;;6.13;2.00;;;16.70;99.90;;;;;;5038464;28;21055;-72
2022/07/10 08:29:45;;;;;;;4.73;1.87;;;16.70;99.90;;;;;;5040285;28;20550;-72
2022/07/10 08:32:36;;;;;;;5.97;2.07;;;16.80;99.90;;;;;;5041129;28;20608;-72
2022/07/10 08:35:25;;;;;;;9.13;2.20;;;16.70;99.90;;;;;;5038656;28;20467;-72
2022/07/10 08:38:13;;;;;;;3.97;2.00;;;16.70;99.90;;;;;;5035451;28;20487;-71
2022/07/10 08:41:02;;;;;;;7.03;2.03;;;16.70;99.90;;;;;;5039956;28;20539;-74
2022/07/10 08:43:51;;;;;;;6.63;1.80;;;16.70;99.90;;;;;;5040599;28;20459;-71
2022/07/10 08:46:39;;;;;;;3.33;1.67;;;16.80;99.90;;;;;;5038829;28;23500;-73
2022/07/10 08:49:31;;;;;;;7.33;2.13;;;16.90;99.90;;;;;;5036700;28;20468;-72
2022/07/10 08:52:27;;;;;;;4.87;1.50;;;16.90;99.90;;;;;;5035313;28;20554;-73
2022/07/10 08:55:15;;;;;;;5.23;1.83;;;16.90;99.90;;;;;;5042337;28;20471;-72
2022/07/10 08:58:04;;;;;;;4.67;1.60;;;17.00;99.90;;;;;;5038597;28;20535;-73
2022/07/10 09:00:53;;;;;;;7.30;2.13;;;16.90;99.90;;;;;;5042284;28;20511;-73
2022/07/10 09:03:41;;;;;;;4.90;1.90;;;16.90;99.90;;;;;;5041867;28;20508;-72
2022/07/10 09:06:30;;;;;;;4.17;1.57;;;16.90;99.90;;;;;;5044160;28;21076;-73
2022/07/10 09:09:20;;;;;;;4.27;1.60;;;16.90;99.90;;;;;;5035955;28;20602;-74
2022/07/10 09:12:09;;;;;;;6.83;1.63;;;17.00;99.90;;;;;;5041191;28;20525;-72
2022/07/10 09:15:16;;;;;;;5.27;1.70;;;17.10;99.90;;;;;;5035720;28;20589;-73
2022/07/10 09:18:07;;;;;;;5.90;2.00;;;17.20;99.90;;;;;;5041391;28;20447;-73
2022/07/10 09:20:55;;;;;;;3.70;1.47;;;17.30;99.90;;;;;;5037849;28;20963;-73
2022/07/10 09:23:45;;;;;;;8.97;2.00;;;17.40;99.90;;;;;;5037686;28;20483;-73
2022/07/10 09:26:34;;;;;;;8.03;2.23;;;17.20;99.90;;;;;;5039140;28;20474;-75
2022/07/10 09:29:22;;;;;;;4.93;2.30;;;17.30;99.90;;;;;;5031027;28;20463;-72
2022/07/10 09:32:12;;;;;;;5.27;2.07;;;17.40;99.90;;;;;;5029361;28;20496;-72
2022/07/10 09:38:07;;;;;;;6.20;2.10;;;17.40;99.90;;;;;;5024156;28;20461;-70
2022/07/10 09:41:11;;;;;;;5.90;1.53;;;17.40;99.90;;;;;;5029237;28;20532;-71
2022/07/10 09:44:02;;;;;;;4.77;1.50;;;17.40;99.90;;;;;;5033679;28;20977;-71
2022/07/10 09:46:51;;;;;;;6.63;1.93;;;17.60;99.90;;;;;;5036016;28;20493;-71
2022/07/10 09:49:39;;;;;;;5.27;1.80;;;17.60;99.90;;;;;;5038373;28;20970;-70
2022/07/10 09:52:29;;;;;;;3.53;1.53;;;17.70;99.90;;;;;;5038564;28;20467;-72
2022/07/10 09:55:21;;;;;;;7.80;2.03;;;17.80;99.90;;;;;;5034046;28;20539;-74
2022/07/10 09:58:13;;;;;;;4.77;1.40;;;17.80;99.90;;;;;;5037097;28;20473;-72
2022/07/10 10:01:03;;;;;;;3.90;1.50;;;17.90;99.90;;;;;;5025627;28;20552;-74
2022/07/10 10:03:52;;;;;;;5.50;1.57;;;17.90;99.90;;;;;;5027127;28;20481;-74
2022/07/10 10:06:43;;;;;;;4.70;1.77;;;17.90;99.90;;;;;;5033413;28;20982;-75
2022/07/10 10:09:37;;;;;;;4.90;1.70;;;17.80;99.90;;;;;;5034572;28;21006;-74
2022/07/10 10:12:32;;;;;;;3.20;1.47;;;17.80;99.90;;;;;;5026694;28;20938;-73
2022/07/10 10:15:23;;;;;;;5.33;1.60;;;17.90;99.90;;;;;;5033949;28;20596;-71
2022/07/10 10:18:12;;;;;;;4.63;1.77;;;18.00;99.90;;;;;;5034963;28;20820;-71
2022/07/10 10:21:01;;;;;;;4.63;1.30;;;18.00;99.90;;;;;;5038777;28;20863;-72
2022/07/10 10:23:50;;;;;;;3.87;1.33;;;18.10;99.90;;;;;;5023762;28;20459;-71
2022/07/10 10:26:38;;;;;;;4.20;1.50;;;18.20;99.90;;;;;;5029567;28;20470;-71
2022/07/10 10:29:29;;;;;;;5.73;1.70;;;18.20;99.90;;;;;;5031400;28;20590;-72
2022/07/10 10:32:18;;;;;;;3.90;1.43;;;18.30;99.90;;;;;;5036949;28;20466;-71
2022/07/10 10:35:09;;;;;;;2.73;1.10;;;18.30;99.90;;;;;;5033987;28;20569;-73
2022/07/10 10:37:57;;;;;;;3.50;1.23;;;18.30;99.90;;;;;;5037480;28;20485;-73
2022/07/10 10:40:47;;;;;;;5.30;1.53;;;18.20;99.90;;;;;;5032409;28;20494;-73
2022/07/10 10:43:36;;;;;;;3.23;1.43;;;18.20;99.90;;;;;;5035352;28;20508;-72
2022/07/10 10:46:25;;;;;;;3.07;1.50;;;18.30;99.90;;;;;;5036791;28;20482;-70
2022/07/10 10:49:16;;;;;;;3.50;1.40;;;18.40;99.90;;;;;;5039154;28;20994;-71
2022/07/10 10:52:10;;;;;;;3.73;1.33;;;18.60;99.90;;;;;;5042079;28;20953;-71
2022/07/10 10:55:11;;;;;;;3.00;1.10;;;18.70;99.90;;;;;;5040772;28;20673;-71
2022/07/10 10:58:17;;;;;;;4.20;1.60;;;18.70;99.90;;;;;;5045546;28;20555;-71
2022/07/10 11:01:06;;;;;;;3.40;1.60;;;18.70;99.90;;;;;;5040861;28;20481;-71
2022/07/10 11:04:17;;;;;;;5.40;1.40;;;18.80;99.90;;;;;;5046932;28;20540;-70
2022/07/10 11:07:08;;;;;;;3.77;1.10;;;18.80;99.90;;;;;;5041390;28;20540;-71
2022/07/10 11:10:27;;;;;;;3.77;1.30;;;18.60;99.90;;;;;;5034613;28;20478;-71
2022/07/10 11:13:16;;;;;;;2.97;1.47;;;18.60;99.90;;;;;;5030499;28;21056;-73
2022/07/10 11:16:13;;;;;;;3.33;1.33;;;18.80;99.90;;;;;;5035013;28;20581;-74
2022/07/10 11:19:03;;;;;;;2.60;1.20;;;18.90;99.90;;;;;;5032364;28;20474;-70
2022/07/10 11:22:04;;;;;;;4.80;1.70;;;19.10;99.90;;;;;;5039683;28;20509;-71
2022/07/10 11:25:04;;;;;;;5.93;1.33;;;19.00;99.90;;;;;;5046318;28;20450;-71
2022/07/10 11:28:12;;;;;;;5.50;1.60;;;19.00;99.90;;;;;;5040408;28;20526;-71
2022/07/10 11:31:00;;;;;;;4.63;1.77;;;19.00;99.90;;;;;;5036848;28;20462;-71
2022/07/10 11:33:51;;;;;;;2.50;1.30;;;19.00;99.90;;;;;;5040474;28;20875;-71
2022/07/10 11:36:40;;;;;;;6.87;1.40;;;19.10;99.90;;;;;;5040500;28;21376;-71
2022/07/10 11:39:30;;;;;;;3.93;1.50;;;19.10;99.90;;;;;;5035094;28;20488;-71
2022/07/10 11:42:18;;;;;;;2.50;1.20;;;18.90;99.90;;;;;;5039327;28;20454;-70
2022/07/10 11:45:22;;;;;;;3.40;1.40;;;18.90;99.90;;;;;;5037387;28;21016;-73
2022/07/10 11:48:18;;;;;;;4.27;1.50;;;18.90;99.90;;;;;;5037649;28;20557;-73
2022/07/10 11:51:24;;;;;;;4.10;1.43;;;18.90;99.90;;;;;;5039737;28;20602;-73
2022/07/10 11:54:15;;;;;;;4.80;1.37;;;19.00;99.90;;;;;;5038853;28;20558;-71
2022/07/10 11:57:08;;;;;;;5.00;1.60;;;19.00;99.90;;;;;;5041919;28;21052;-72
2022/07/10 11:59:58;;;;;;;4.13;1.40;;;19.10;99.90;;;;;;5039553;28;21578;-72
2022/07/10 12:02:46;;;;;;;5.13;1.97;;;19.10;99.90;;;;;;5034791;28;20554;-72
2022/07/10 12:05:36;;;;;;;3.70;1.50;;;19.20;99.90;;;;;;5036284;28;20983;-72
2022/07/10 12:08:25;;;;;;;4.40;1.60;;;19.30;99.90;;;;;;5035983;28;20603;-72
2022/07/10 12:11:14;;;;;;;6.07;1.93;;;19.50;99.90;;;;;;5035541;28;20462;-72
2022/07/10 12:14:14;;;;;;;3.07;1.30;;;19.60;99.90;;;;;;5035666;28;20593;-72
2022/07/10 12:17:11;;;;;;;4.00;1.40;;;19.60;99.90;;;;;;5037941;28;20474;-72
2022/07/10 12:20:01;;;;;;;7.17;1.70;;;19.70;99.90;;;;;;5039310;28;20529;-72
2022/07/10 12:22:50;;;;;;;2.60;1.17;;;19.70;99.90;;;;;;5031017;28;20466;-72
2022/07/10 12:25:41;;;;;;;3.33;1.40;;;19.50;99.90;;;;;;5030456;28;20777;-70
2022/07/10 12:28:30;;;;;;;6.10;1.70;;;19.60;99.90;;;;;;5033619;28;20745;-72
2022/07/10 12:31:26;;;;;;;2.63;1.40;;;19.60;99.90;;;;;;5040848;28;20864;-71
2022/07/10 12:34:15;;;;;;;3.33;1.40;;;19.60;99.90;;;;;;5024947;28;20481;-71
2022/07/10 12:37:09;;;;;;;3.10;1.40;;;19.50;99.90;;;;;;5035920;28;20474;-72
2022/07/10 12:40:00;;;;;;;4.77;1.60;;;19.60;99.90;;;;;;5034600;28;21055;-72
2022/07/10 12:42:49;;;;;;;4.20;1.80;;;19.60;99.90;;;;;;5030229;28;20454;-72
2022/07/10 12:45:37;;;;;;;3.77;1.47;;;19.60;99.90;;;;;;5030335;28;20577;-72
2022/07/10 12:48:27;;;;;;;8.13;1.87;;;19.50;99.90;;;;;;5034865;28;20566;-73
2022/07/10 12:51:44;;;;;;;3.10;1.40;;;19.40;99.90;;;;;;5037340;28;20454;-72
2022/07/10 12:55:09;;;;;;;4.60;1.50;;;19.40;99.90;;;;;;5033113;28;20458;-72
2022/07/10 12:57:58;;;;;;;4.67;1.70;;;19.30;99.90;;;;;;5038770;28;20463;-72
2022/07/10 13:00:49;;;;;;;5.43;2.27;;;19.30;99.90;;;;;;5035277;28;21102;-73
2022/07/10 13:06:41;;;;;;;6.97;2.43;;;19.30;99.90;;;;;;5040215;28;21254;-72
2022/07/10 13:09:29;;;;;;;4.33;1.67;;;19.30;99.90;;;;;;5042873;28;20486;-72
2022/07/10 13:12:17;;;;;;;3.77;1.90;;;19.30;99.90;;;;;;5040519;28;20604;-72
2022/07/10 13:15:07;;;;;;;3.20;1.60;;;19.30;99.90;;;;;;5035989;28;20586;-72
2022/07/10 13:17:55;;;;;;;5.47;1.70;;;19.20;99.90;;;;;;5041324;28;20493;-71
2022/07/10 13:20:47;;;;;;;3.43;1.57;;;19.10;99.90;;;;;;5044187;28;20958;-70
2022/07/10 13:23:35;;;;;;;4.97;2.30;;;19.20;99.90;;;;;;5044352;28;20466;-71
2022/07/10 13:26:23;;;;;;;5.83;2.40;;;19.20;99.90;;;;;;5045302;28;20475;-69
2022/07/10 13:29:11;;;;;;;5.00;2.60;;;19.20;99.90;;;;;;5041598;28;20569;-69
2022/07/10 13:32:00;;;;;;;4.93;1.93;;;19.20;99.90;;;;;;5038321;28;20677;-70
2022/07/10 13:34:48;;;;;;;3.43;2.03;;;19.20;99.90;;;;;;5035959;28;20462;-70
2022/07/10 13:37:38;;;;;;;2.60;1.70;;;19.20;99.90;;;;;;5040007;28;20577;-71
2022/07/10 13:40:26;;;;;;;3.70;1.80;;;19.20;99.90;;;;;;5040239;28;20517;-71
2022/07/10 13:43:16;;;;;;;5.10;2.20;;;19.30;99.90;;;;;;5036606;28;20469;-71
2022/07/10 13:46:05;;;;;;;5.33;2.10;;;19.30;99.90;;;;;;5025799;28;20474;-72
2022/07/10 13:48:53;;;;;;;3.53;1.90;;;19.30;99.90;;;;;;5025740;28;20560;-72
2022/07/10 13:51:41;;;;;;;3.73;1.90;;;19.40;99.90;;;;;;5023359;28;20462;-71
2022/07/10 13:54:31;;;;;;;5.27;1.90;;;19.40;99.90;;;;;;5041286;28;20478;-71
2022/07/10 13:57:19;;;;;;;6.70;2.10;;;19.40;99.90;;;;;;5042270;28;20497;-71
2022/07/10 14:00:09;;;;;;;4.90;1.90;;;19.40;99.90;;;;;;5034588;28;20485;-71
2022/07/10 14:03:00;;;;;;;3.03;1.50;;;19.30;99.90;;;;;;5037108;28;20455;-71
2022/07/10 14:05:48;;;;;;;3.63;2.00;;;19.40;99.90;;;;;;5031080;28;20477;-71
2022/07/10 14:08:36;;;;;;;6.93;2.03;;;19.30;99.90;;;;;;5035867;28;21139;-72
2022/07/10 14:11:28;;;;;;;4.47;1.70;;;19.30;99.90;;;;;;5036604;28;20516;-71
2022/07/10 14:14:17;;;;;;;3.80;2.37;;;19.30;99.90;;;;;;5030972;28;20490;-72
2022/07/10 14:17:05;;;;;;;5.73;2.00;;;19.10;99.90;;;;;;5038447;28;20853;-73
2022/07/10 14:19:53;;;;;;;4.40;1.80;;;19.20;99.90;;;;;;5034795;28;20502;-74
2022/07/10 14:22:45;;;;;;;3.23;1.93;;;19.40;99.90;;;;;;5038616;28;20483;-73
2022/07/10 14:25:33;;;;;;;5.10;2.13;;;19.50;99.90;;;;;;5029625;28;20537;-77
2022/07/10 14:28:23;;;;;;;3.90;2.10;;;19.70;99.90;;;;;;5030253;28;20831;-78
2022/07/10 14:31:14;;;;;;;5.30;1.90;;;19.80;99.90;;;;;;5035679;28;20545;-75
2022/07/10 14:34:02;;;;;;;9.20;2.10;;;19.90;99.90;;;;;;5036207;28;20456;-76
2022/07/10 14:36:52;;;;;;;6.43;2.27;;;19.90;99.90;;;;;;5035977;28;20556;-75
2022/07/10 14:39:47;;;;;;;4.70;1.63;;;19.90;99.90;;;;;;5023642;28;20486;-75
2022/07/10 14:42:37;;;;;;;7.90;1.97;;;19.90;99.90;;;;;;5031902;28;21006;-74
2022/07/10 14:45:27;;;;;;;4.93;1.50;;;19.80;99.90;;;;;;5028636;28;20855;-73
2022/07/10 14:48:36;;;;;;;4.40;1.57;;;19.90;99.90;;;;;;5028451;28;20499;-76
2022/07/10 14:51:26;;;;;;;3.57;2.00;;;19.90;99.90;;;;;;5029057;28;20511;-75
2022/07/10 14:54:14;;;;;;;1.70;1.00;;;19.90;99.90;;;;;;5030021;28;20459;-76
2022/07/10 14:57:06;;;;;;;5.60;1.77;;;19.80;99.90;;;;;;5033110;28;20482;-75
2022/07/10 14:59:54;;;;;;;3.47;1.90;;;19.80;99.90;;;;;;5028395;28;20475;-77
2022/07/10 15:02:44;;;;;;;4.00;1.90;;;19.80;99.90;;;;;;5031358;28;21322;-77
2022/07/10 15:05:33;;;;;;;6.90;1.63;;;19.80;99.90;;;;;;5033411;28;20475;-76
2022/07/10 15:08:21;;;;;;;4.00;1.93;;;19.80;99.90;;;;;;5035526;28;20470;-76
2022/07/10 15:11:10;;;;;;;6.83;1.40;;;19.80;99.90;;;;;;5032136;28;20557;-75
2022/07/10 15:13:59;;;;;;;4.90;1.53;;;19.70;99.90;;;;;;5035366;28;20482;-76
2022/07/10 15:16:47;;;;;;;4.37;1.40;;;19.80;99.90;;;;;;5036019;28;21001;-74
2022/07/10 15:19:37;;;;;;;5.03;2.13;;;19.80;99.90;;;;;;5033187;28;20478;-72
2022/07/10 15:22:27;;;;;;;3.00;1.80;;;19.90;99.90;;;;;;5030335;28;20494;-74
2022/07/10 15:25:15;;;;;;;4.47;2.10;;;19.90;99.90;;;;;;5034642;28;20479;-72
2022/07/10 15:28:05;;;;;;;3.07;1.60;;;19.80;99.90;;;;;;5035070;28;20471;-72
2022/07/10 15:30:53;;;;;;;3.90;1.93;;;19.80;99.90;;;;;;5036450;28;21551;-73
2022/07/10 15:33:44;;;;;;;4.67;1.50;;;19.50;99.90;;;;;;5037952;28;20946;-74
2022/07/10 15:36:34;;;;;;;3.90;1.70;;;19.40;99.90;;;;;;5032497;28;20483;-73
2022/07/10 15:39:22;;;;;;;6.03;1.60;;;19.50;99.90;;;;;;5034217;28;20486;-73
2022/07/10 15:42:12;;;;;;;2.13;1.50;;;19.50;99.90;;;;;;5042932;28;20986;-72
2022/07/10 15:45:02;;;;;;;3.50;1.93;;;19.50;99.90;;;;;;5040800;28;20825;-72
2022/07/10 15:47:51;;;;;;;3.53;2.00;;;19.60;99.90;;;;;;5041457;28;21293;-73
2022/07/10 15:50:39;;;;;;;3.13;1.93;;;19.70;99.90;;;;;;5038784;28;21131;-73
2022/07/10 15:53:28;;;;;;;2.33;1.47;;;19.70;99.90;;;;;;5046087;28;20477;-72
2022/07/10 15:56:17;;;;;;;4.40;2.40;;;19.70;99.90;;;;;;5047861;28;20486;-71
2022/07/10 15:59:05;;;;;;;6.80;5.00;;;19.60;99.90;;;;;;5042751;28;20470;-72
2022/07/10 16:01:55;;;;;;;17.07;15.30;;;19.70;99.90;;;;;;5038173;28;20482;-70
2022/07/10 16:04:43;;;;;;;67.50;60.93;;;19.80;99.90;;;;;;5040140;28;20558;-72
2022/07/10 16:07:31;;;;;;;20.43;18.27;;;19.90;99.90;;;;;;5032250;28;20553;-71
2022/07/10 16:10:21;;;;;;;24.37;21.77;;;19.80;99.90;;;;;;5032544;28;21668;-69